sensor_id;sensor_type;location;lat;lon;timestamp;pressure;altitude;pressure_sealevel;temperature;humidity
59767;BME280;46248;58.364;25.582;2023-01-29T00:01:14;100451.75;;;-1.07;100.00
59767;BME280;46248;58.364;25.582;2023-01-29T00:04:36;100447.47;;;-1.03;100.00
59767;BME280;46248;58.364;25.582;2023-01-29T00:07:59;100438.94;;;-1.05;100.00
59767;BME280;46248;58.364;25.582;2023-01-29T00:11:22;100443.16;;;-0.98;100.00
59767;BME280;46248;58.364;25.582;2023-01-29T00:14:44;100434.59;;;-0.99;100.00
59767;BME280;46248;58.364;25.582;2023-01-29T00:18:06;100442.25;;;-0.91;100.00
59767;BME280;46248;58.364;25.582;2023-01-29T00:21:28;100438.84;;;-0.90;100.00
59767;BME280;46248;58.364;25.582;2023-01-29T00:24:53;100420.00;;;-0.92;100.00
59767;BME280;46248;58.364;25.582;2023-01-29T00:28:15;100427.69;;;-0.84;100.00
59767;BME280;46248;58.364;25.582;2023-01-29T00:31:37;100429.38;;;-0.86;100.00
59767;BME280;46248;58.364;25.582;2023-01-29T00:34:59;100430.19;;;-0.80;100.00
59767;BME280;46248;58.364;25.582;2023-01-29T00:38:21;100413.03;;;-0.76;100.00
59767;BME280;46248;58.364;25.582;2023-01-29T00:41:44;100408.75;;;-0.74;100.00
59767;BME280;46248;58.364;25.582;2023-01-29T00:45:24;100409.59;;;-0.74;100.00
59767;BME280;46248;58.364;25.582;2023-01-29T00:48:46;100398.44;;;-0.71;100.00
59767;BME280;46248;58.364;25.582;2023-01-29T00:52:08;100396.72;;;-0.71;100.00
59767;BME280;46248;58.364;25.582;2023-01-29T00:55:45;100384.75;;;-0.75;100.00
59767;BME280;46248;58.364;25.582;2023-01-29T00:59:08;100385.56;;;-0.66;100.00
59767;BME280;46248;58.364;25.582;2023-01-29T01:02:30;100392.38;;;-0.64;100.00
59767;BME280;46248;58.364;25.582;2023-01-29T01:06:10;100366.78;;;-0.78;100.00
59767;BME280;46248;58.364;25.582;2023-01-29T01:09:34;100390.63;;;-0.59;100.00
59767;BME280;46248;58.364;25.582;2023-01-29T01:13:18;100388.06;;;-0.57;100.00
59767;BME280;46248;58.364;25.582;2023-01-29T01:16:43;100374.34;;;-0.61;100.00
59767;BME280;46248;58.364;25.582;2023-01-29T01:20:06;100379.44;;;-0.55;100.00
59767;BME280;46248;58.364;25.582;2023-01-29T01:23:29;100374.28;;;-0.52;100.00
59767;BME280;46248;58.364;25.582;2023-01-29T01:26:51;100377.72;;;-0.53;100.00
59767;BME280;46248;58.364;25.582;2023-01-29T01:30:14;100380.31;;;-0.51;100.00
59767;BME280;46248;58.364;25.582;2023-01-29T01:33:39;100369.97;;;-0.50;100.00
59767;BME280;46248;58.364;25.582;2023-01-29T01:37:01;100372.56;;;-0.48;100.00
59767;BME280;46248;58.364;25.582;2023-01-29T01:40:24;100378.50;;;-0.46;100.00
59767;BME280;46248;58.364;25.582;2023-01-29T01:43:48;100375.97;;;-0.48;100.00
59767;BME280;46248;58.364;25.582;2023-01-29T01:47:10;100365.69;;;-0.48;100.00
59767;BME280;46248;58.364;25.582;2023-01-29T01:50:35;100372.53;;;-0.47;100.00
59767;BME280;46248;58.364;25.582;2023-01-29T01:54:03;100369.13;;;-0.52;100.00
59767;BME280;46248;58.364;25.582;2023-01-29T01:57:27;100380.22;;;-0.43;100.00
59767;BME280;46248;58.364;25.582;2023-01-29T02:00:51;100383.63;;;-0.41;100.00
59767;BME280;46248;58.364;25.582;2023-01-29T02:04:15;100379.34;;;-0.41;100.00
59767;BME280;46248;58.364;25.582;2023-01-29T02:07:57;100384.47;;;-0.36;100.00
59767;BME280;46248;58.364;25.582;2023-01-29T02:11:37;100375.03;;;-0.39;100.00
59767;BME280;46248;58.364;25.582;2023-01-29T02:15:00;100371.56;;;-0.35;100.00
59767;BME280;46248;58.364;25.582;2023-01-29T02:18:23;100379.25;;;-0.30;100.00
59767;BME280;46248;58.364;25.582;2023-01-29T02:22:04;100380.09;;;-0.30;100.00
59767;BME280;46248;58.364;25.582;2023-01-29T02:26:00;100383.50;;;-0.28;100.00
59767;BME280;46248;58.364;25.582;2023-01-29T02:29:38;100385.22;;;-0.27;100.00
59767;BME280;46248;58.364;25.582;2023-01-29T02:33:10;100384.38;;;-0.27;100.00
59767;BME280;46248;58.364;25.582;2023-01-29T02:36:39;100380.91;;;-0.23;100.00
59767;BME280;46248;58.364;25.582;2023-01-29T02:40:13;100357.75;;;-0.25;100.00
59767;BME280;46248;58.364;25.582;2023-01-29T02:43:44;100356.88;;;-0.22;100.00
59767;BME280;46248;58.364;25.582;2023-01-29T02:47:14;100345.75;;;-0.26;100.00
59767;BME280;46248;58.364;25.582;2023-01-29T02:50:42;100349.13;;;-0.19;100.00
59767;BME280;46248;58.364;25.582;2023-01-29T02:54:09;100349.97;;;-0.17;100.00
59767;BME280;46248;58.364;25.582;2023-01-29T02:57:36;100339.69;;;-0.20;100.00
59767;BME280;46248;58.364;25.582;2023-01-29T03:01:03;100341.38;;;-0.16;100.00
59767;BME280;46248;58.364;25.582;2023-01-29T03:04:32;100341.38;;;-0.14;100.00
59767;BME280;46248;58.364;25.582;2023-01-29T03:07:58;100325.91;;;-0.14;100.00
59767;BME280;46248;58.364;25.582;2023-01-29T03:11:22;100323.31;;;-0.13;100.00
59767;BME280;46248;58.364;25.582;2023-01-29T03:14:45;100311.34;;;-0.17;100.00
59767;BME280;46248;58.364;25.582;2023-01-29T03:18:24;100314.75;;;-0.12;100.00
59767;BME280;46248;58.364;25.582;2023-01-29T03:21:54;100313.91;;;-0.14;100.00
59767;BME280;46248;58.364;25.582;2023-01-29T03:25:19;100313.00;;;-0.10;100.00
59767;BME280;46248;58.364;25.582;2023-01-29T03:29:00;100311.25;;;-0.09;100.00
59767;BME280;46248;58.364;25.582;2023-01-29T03:32:41;100313.84;;;-0.08;100.00
59767;BME280;46248;58.364;25.582;2023-01-29T03:36:09;100299.31;;;-0.13;100.00
59767;BME280;46248;58.364;25.582;2023-01-29T03:39:34;100294.97;;;-0.08;100.00
59767;BME280;46248;58.364;25.582;2023-01-29T03:43:06;100294.09;;;-0.06;100.00
59767;BME280;46248;58.364;25.582;2023-01-29T03:46:35;100286.38;;;-0.07;100.00
59767;BME280;46248;58.364;25.582;2023-01-29T03:50:04;100289.78;;;-0.05;100.00
59767;BME280;46248;58.364;25.582;2023-01-29T03:53:30;100268.34;;;-0.07;100.00
59767;BME280;46248;58.364;25.582;2023-01-29T03:57:01;100274.31;;;-0.02;100.00
59767;BME280;46248;58.364;25.582;2023-01-29T04:00:27;100270.00;;;0.00;100.00
59767;BME280;46248;58.364;25.582;2023-01-29T04:03:54;100252.84;;;0.01;100.00
59767;BME280;46248;58.364;25.582;2023-01-29T04:07:19;100252.78;;;0.02;100.00
59767;BME280;46248;58.364;25.582;2023-01-29T04:10:46;100249.38;;;0.02;100.00
59767;BME280;46248;58.364;25.582;2023-01-29T04:14:11;100247.66;;;0.02;100.00
59767;BME280;46248;58.364;25.582;2023-01-29T04:17:38;100247.66;;;0.04;100.00
59767;BME280;46248;58.364;25.582;2023-01-29T04:21:01;100237.31;;;0.05;100.00
59767;BME280;46248;58.364;25.582;2023-01-29T04:24:27;100233.09;;;0.01;100.00
59767;BME280;46248;58.364;25.582;2023-01-29T04:27:56;100231.31;;;0.06;100.00
59767;BME280;46248;58.364;25.582;2023-01-29T04:31:27;100226.16;;;0.06;100.00
59767;BME280;46248;58.364;25.582;2023-01-29T04:34:59;100226.13;;;0.08;100.00
59767;BME280;46248;58.364;25.582;2023-01-29T04:38:29;100229.59;;;0.07;100.00
59767;BME280;46248;58.364;25.582;2023-01-29T04:42:00;100219.25;;;0.10;100.00
59767;BME280;46248;58.364;25.582;2023-01-29T04:45:34;100226.97;;;0.10;100.00
59767;BME280;46248;58.364;25.582;2023-01-29T04:49:12;100227.78;;;0.12;100.00
59767;BME280;46248;58.364;25.582;2023-01-29T04:52:43;100219.22;;;0.11;100.00
59767;BME280;46248;58.364;25.582;2023-01-29T04:56:13;100230.34;;;0.13;100.00
59767;BME280;46248;58.364;25.582;2023-01-29T04:59:40;100220.84;;;0.17;100.00
59767;BME280;46248;58.364;25.582;2023-01-29T05:03:03;100228.59;;;0.18;100.00
59767;BME280;46248;58.364;25.582;2023-01-29T05:06:31;100219.97;;;0.18;100.00
59767;BME280;46248;58.364;25.582;2023-01-29T05:09:53;100217.44;;;0.15;100.00
59767;BME280;46248;58.364;25.582;2023-01-29T05:13:18;100220.81;;;0.21;100.00
59767;BME280;46248;58.364;25.582;2023-01-29T05:16:43;100216.56;;;0.19;100.00
59767;BME280;46248;58.364;25.582;2023-01-29T05:20:09;100213.09;;;0.21;100.00
59767;BME280;46248;58.364;25.582;2023-01-29T05:23:33;100207.06;;;0.21;100.00
59767;BME280;46248;58.364;25.582;2023-01-29T05:26:55;100201.91;;;0.22;100.00
59767;BME280;46248;58.364;25.582;2023-01-29T05:30:36;100201.94;;;0.19;100.00
59767;BME280;46248;58.364;25.582;2023-01-29T05:33:58;100198.50;;;0.20;100.00
59767;BME280;46248;58.364;25.582;2023-01-29T05:37:20;100198.50;;;0.20;100.00
59767;BME280;46248;58.364;25.582;2023-01-29T05:40:44;100195.91;;;0.20;100.00
59767;BME280;46248;58.364;25.582;2023-01-29T05:44:06;100188.19;;;0.20;100.00
59767;BME280;46248;58.364;25.582;2023-01-29T05:47:28;100187.34;;;0.20;100.00
59767;BME280;46248;58.364;25.582;2023-01-29T05:50:50;100182.28;;;0.15;100.00
59767;BME280;46248;58.364;25.582;2023-01-29T05:54:13;100176.25;;;0.16;100.00
59767;BME280;46248;58.364;25.582;2023-01-29T05:57:38;100183.03;;;0.20;100.00
59767;BME280;46248;58.364;25.582;2023-01-29T06:01:08;100168.47;;;0.19;100.00
59767;BME280;46248;58.364;25.582;2023-01-29T06:04:30;100182.19;;;0.20;100.00
59767;BME280;46248;58.364;25.582;2023-01-29T06:07:52;100182.16;;;0.23;100.00
59767;BME280;46248;58.364;25.582;2023-01-29T06:11:14;100176.13;;;0.24;100.00
59767;BME280;46248;58.364;25.582;2023-01-29T06:14:39;100176.13;;;0.24;100.00
59767;BME280;46248;58.364;25.582;2023-01-29T06:18:01;100188.09;;;0.27;100.00
59767;BME280;46248;58.364;25.582;2023-01-29T06:21:23;100183.00;;;0.25;100.00
59767;BME280;46248;58.364;25.582;2023-01-29T06:24:45;100188.09;;;0.28;100.00
59767;BME280;46248;58.364;25.582;2023-01-29T06:28:06;100181.22;;;0.29;100.00
59767;BME280;46248;58.364;25.582;2023-01-29T06:31:30;100172.59;;;0.31;100.00
59767;BME280;46248;58.364;25.582;2023-01-29T06:34:58;100174.28;;;0.32;100.00
59767;BME280;46248;58.364;25.582;2023-01-29T06:38:20;100172.56;;;0.33;100.00
59767;BME280;46248;58.364;25.582;2023-01-29T06:41:42;100168.25;;;0.35;100.00
59767;BME280;46248;58.364;25.582;2023-01-29T06:45:06;100150.25;;;0.32;100.00
59767;BME280;46248;58.364;25.582;2023-01-29T06:48:30;100136.56;;;0.30;100.00
59767;BME280;46248;58.364;25.582;2023-01-29T06:51:53;100146.75;;;0.37;100.00
59767;BME280;46248;58.364;25.582;2023-01-29T06:55:15;100146.75;;;0.36;100.00
59767;BME280;46248;58.364;25.582;2023-01-29T06:58:37;100149.31;;;0.37;100.00
59767;BME280;46248;58.364;25.582;2023-01-29T07:01:59;100138.13;;;0.38;100.00
59767;BME280;46248;58.364;25.582;2023-01-29T07:05:23;100131.25;;;0.39;100.00
59767;BME280;46248;58.364;25.582;2023-01-29T07:08:44;100125.22;;;0.41;100.00
59767;BME280;46248;58.364;25.582;2023-01-29T07:12:07;100128.63;;;0.42;100.00
59767;BME280;46248;58.364;25.582;2023-01-29T07:15:29;100130.34;;;0.43;100.00
59767;BME280;46248;58.364;25.582;2023-01-29T07:18:51;100128.63;;;0.42;100.00
59767;BME280;46248;58.364;25.582;2023-01-29T07:22:14;100136.31;;;0.47;100.00
59767;BME280;46248;58.364;25.582;2023-01-29T07:25:36;100126.94;;;0.42;100.00
59767;BME280;46248;58.364;25.582;2023-01-29T07:28:58;100132.84;;;0.49;100.00
59767;BME280;46248;58.364;25.582;2023-01-29T07:32:20;100127.69;;;0.49;100.00
59767;BME280;46248;58.364;25.582;2023-01-29T07:35:42;100123.31;;;0.53;100.00
59767;BME280;46248;58.364;25.582;2023-01-29T07:39:05;100120.69;;;0.56;100.00
59767;BME280;46248;58.364;25.582;2023-01-29T07:42:27;100113.81;;;0.56;100.00
59767;BME280;46248;58.364;25.582;2023-01-29T07:45:49;100113.81;;;0.58;100.00
59767;BME280;46248;58.364;25.582;2023-01-29T07:49:12;100110.25;;;0.63;100.00
59767;BME280;46248;58.364;25.582;2023-01-29T07:52:34;100114.50;;;0.66;100.00
59767;BME280;46248;58.364;25.582;2023-01-29T07:55:58;100120.50;;;0.68;100.00
59767;BME280;46248;58.364;25.582;2023-01-29T07:59:20;100119.59;;;0.69;100.00
59767;BME280;46248;58.364;25.582;2023-01-29T08:02:41;100113.53;;;0.72;100.00
59767;BME280;46248;58.364;25.582;2023-01-29T08:06:04;100116.13;;;0.73;100.00
59767;BME280;46248;58.364;25.582;2023-01-29T08:09:26;100123.84;;;0.73;100.00
59767;BME280;46248;58.364;25.582;2023-01-29T08:12:54;100115.22;;;0.74;100.00
59767;BME280;46248;58.364;25.582;2023-01-29T08:16:16;100111.75;;;0.75;100.00
59767;BME280;46248;58.364;25.582;2023-01-29T08:19:38;100117.81;;;0.74;100.00
59767;BME280;46248;58.364;25.582;2023-01-29T08:23:00;100114.34;;;0.75;100.00
59767;BME280;46248;58.364;25.582;2023-01-29T08:26:22;100101.44;;;0.75;100.00
59767;BME280;46248;58.364;25.582;2023-01-29T08:29:47;100103.13;;;0.78;100.00
59767;BME280;46248;58.364;25.582;2023-01-29T08:33:09;100100.59;;;0.76;100.00
59767;BME280;46248;58.364;25.582;2023-01-29T08:36:31;100091.97;;;0.77;100.00
59767;BME280;46248;58.364;25.582;2023-01-29T08:39:53;100086.81;;;0.77;100.00
59767;BME280;46248;58.364;25.582;2023-01-29T08:43:15;100089.34;;;0.82;100.00
59767;BME280;46248;58.364;25.582;2023-01-29T08:46:38;100083.31;;;0.81;100.00
59767;BME280;46248;58.364;25.582;2023-01-29T08:50:01;100079.09;;;0.77;100.00
59767;BME280;46248;58.364;25.582;2023-01-29T08:53:23;100084.13;;;0.83;100.00
59767;BME280;46248;58.364;25.582;2023-01-29T08:56:45;100085.81;;;0.84;100.00
59767;BME280;46248;58.364;25.582;2023-01-29T09:00:09;100086.69;;;0.85;100.00
59767;BME280;46248;58.364;25.582;2023-01-29T09:03:33;100073.88;;;0.82;100.00
59767;BME280;46248;58.364;25.582;2023-01-29T09:06:55;100074.66;;;0.85;100.00
59767;BME280;46248;58.364;25.582;2023-01-29T09:10:18;100070.34;;;0.84;100.00
59767;BME280;46248;58.364;25.582;2023-01-29T09:13:39;100076.34;;;0.88;100.00
59767;BME280;46248;58.364;25.582;2023-01-29T09:17:02;100077.13;;;0.91;100.00
59767;BME280;46248;58.364;25.582;2023-01-29T09:20:25;100067.72;;;0.89;100.00
59767;BME280;46248;58.364;25.582;2023-01-29T09:23:47;100075.38;;;0.92;100.00
59767;BME280;46248;58.364;25.582;2023-01-29T09:27:09;100062.50;;;0.92;100.00
59767;BME280;46248;58.364;25.582;2023-01-29T09:30:31;100058.19;;;0.93;100.00
59767;BME280;46248;58.364;25.582;2023-01-29T09:33:54;100049.56;;;0.94;100.00
59767;BME280;46248;58.364;25.582;2023-01-29T09:37:17;100043.69;;;0.87;100.00
59767;BME280;46248;58.364;25.582;2023-01-29T09:40:48;100043.56;;;0.93;100.00
59767;BME280;46248;58.364;25.582;2023-01-29T09:44:18;100036.69;;;0.94;100.00
59767;BME280;46248;58.364;25.582;2023-01-29T09:47:44;100031.56;;;0.92;100.00
59767;BME280;46248;58.364;25.582;2023-01-29T09:51:13;100036.66;;;0.95;100.00
59767;BME280;46248;58.364;25.582;2023-01-29T09:54:48;100016.88;;;0.96;100.00
59767;BME280;46248;58.364;25.582;2023-01-29T09:58:17;100014.28;;;0.97;100.00
59767;BME280;46248;58.364;25.582;2023-01-29T10:01:47;100005.66;;;0.98;100.00
59767;BME280;46248;58.364;25.582;2023-01-29T10:05:31;99982.72;;;0.84;100.00
59767;BME280;46248;58.364;25.582;2023-01-29T10:09:12;99991.88;;;1.01;100.00
59767;BME280;46248;58.364;25.582;2023-01-29T10:13:01;99981.44;;;1.05;100.00
59767;BME280;46248;58.364;25.582;2023-01-29T10:16:37;99962.66;;;1.00;100.00
59767;BME280;46248;58.364;25.582;2023-01-29T10:20:17;99971.97;;;1.06;100.00
59767;BME280;46248;58.364;25.582;2023-01-29T10:23:44;99965.13;;;1.06;100.00
59767;BME280;46248;58.364;25.582;2023-01-29T10:27:12;99955.66;;;1.05;100.00
59767;BME280;46248;58.364;25.582;2023-01-29T10:30:40;99951.34;;;1.06;100.00
59767;BME280;46248;58.364;25.582;2023-01-29T10:34:12;99955.66;;;1.07;100.00
59767;BME280;46248;58.364;25.582;2023-01-29T10:37:38;99930.78;;;1.03;100.00
59767;BME280;46248;58.364;25.582;2023-01-29T10:41:11;99920.69;;;0.94;100.00
59767;BME280;46248;58.364;25.582;2023-01-29T10:44:45;99921.31;;;1.05;100.00
59767;BME280;46248;58.364;25.582;2023-01-29T10:48:37;99932.31;;;1.13;100.00
59767;BME280;46248;58.364;25.582;2023-01-29T10:52:13;99914.25;;;1.13;100.00
59767;BME280;46248;58.364;25.582;2023-01-29T10:55:48;99902.22;;;1.13;100.00
59767;BME280;46248;58.364;25.582;2023-01-29T10:59:26;99883.47;;;1.07;100.00
59767;BME280;46248;58.364;25.582;2023-01-29T11:02:50;99867.38;;;0.96;100.00
59767;BME280;46248;58.364;25.582;2023-01-29T11:06:17;99884.38;;;1.04;100.00
59767;BME280;46248;58.364;25.582;2023-01-29T11:09:47;99880.81;;;1.08;100.00
59767;BME280;46248;58.364;25.582;2023-01-29T11:13:13;99873.91;;;1.10;100.00
59767;BME280;46248;58.364;25.582;2023-01-29T11:16:40;99878.25;;;1.08;100.00
59767;BME280;46248;58.364;25.582;2023-01-29T11:20:07;99884.28;;;1.07;100.00
59767;BME280;46248;58.364;25.582;2023-01-29T11:23:47;99867.16;;;1.05;100.00
59767;BME280;46248;58.364;25.582;2023-01-29T11:27:13;99869.75;;;1.05;100.00
59767;BME280;46248;58.364;25.582;2023-01-29T11:30:38;99858.53;;;1.06;100.00
59767;BME280;46248;58.364;25.582;2023-01-29T11:34:02;99864.69;;;1.00;100.00
59767;BME280;46248;58.364;25.582;2023-01-29T11:37:31;99848.41;;;0.98;100.00
59767;BME280;46248;58.364;25.582;2023-01-29T11:41:05;99865.44;;;1.05;100.00
59767;BME280;46248;58.364;25.582;2023-01-29T11:44:31;99861.16;;;1.04;100.00
59767;BME280;46248;58.364;25.582;2023-01-29T11:47:55;99848.28;;;1.04;100.00
59767;BME280;46248;58.364;25.582;2023-01-29T11:51:20;99846.69;;;0.99;100.00
59767;BME280;46248;58.364;25.582;2023-01-29T11:54:47;99857.84;;;0.99;100.00
59767;BME280;46248;58.364;25.582;2023-01-29T11:58:17;99849.31;;;0.96;100.00
59767;BME280;46248;58.364;25.582;2023-01-29T12:01:41;99846.81;;;0.93;100.00
59767;BME280;46248;58.364;25.582;2023-01-29T12:05:05;99844.25;;;0.93;100.00
59767;BME280;46248;58.364;25.582;2023-01-29T12:08:36;99853.72;;;0.90;100.00
59767;BME280;46248;58.364;25.582;2023-01-29T12:12:16;99846.03;;;0.89;100.00
59767;BME280;46248;58.364;25.582;2023-01-29T12:15:40;99846.97;;;0.86;100.00
59767;BME280;46248;58.364;25.582;2023-01-29T12:19:09;99848.63;;;0.87;100.00
59767;BME280;46248;58.364;25.582;2023-01-29T12:22:39;99841.72;;;0.89;100.00
59767;BME280;46248;58.364;25.582;2023-01-29T12:26:06;99826.25;;;0.91;100.00
59767;BME280;46248;58.364;25.582;2023-01-29T12:29:33;99824.47;;;0.93;100.00
59767;BME280;46248;58.364;25.582;2023-01-29T12:33:03;99815.03;;;0.92;100.00
59767;BME280;46248;58.364;25.582;2023-01-29T12:36:30;99815.88;;;0.93;100.00
59767;BME280;46248;58.364;25.582;2023-01-29T12:39:55;99812.56;;;0.87;100.00
59767;BME280;46248;58.364;25.582;2023-01-29T12:43:18;99809.88;;;0.92;100.00
59767;BME280;46248;58.364;25.582;2023-01-29T12:46:47;99804.69;;;0.94;100.00
59767;BME280;46248;58.364;25.582;2023-01-29T12:50:16;99802.16;;;0.92;100.00
59767;BME280;46248;58.364;25.582;2023-01-29T12:53:44;99805.63;;;0.91;100.00
59767;BME280;46248;58.364;25.582;2023-01-29T12:57:17;99801.25;;;0.93;100.00
59767;BME280;46248;58.364;25.582;2023-01-29T13:00:44;99790.31;;;0.85;100.00
59767;BME280;46248;58.364;25.582;2023-01-29T13:04:12;99790.13;;;0.93;100.00
59767;BME280;46248;58.364;25.582;2023-01-29T13:07:41;99784.06;;;0.94;100.00
59767;BME280;46248;58.364;25.582;2023-01-29T13:11:09;99772.13;;;0.89;100.00
59767;BME280;46248;58.364;25.582;2023-01-29T13:14:41;99770.25;;;0.96;100.00
59767;BME280;46248;58.364;25.582;2023-01-29T13:18:22;99756.59;;;0.94;100.00
59767;BME280;46248;58.364;25.582;2023-01-29T13:21:51;99747.13;;;0.93;100.00
59767;BME280;46248;58.364;25.582;2023-01-29T13:25:17;99753.94;;;0.96;100.00
59767;BME280;46248;58.364;25.582;2023-01-29T13:28:43;99739.53;;;0.88;100.00
59767;BME280;46248;58.364;25.582;2023-01-29T13:32:06;99751.44;;;0.93;100.00
59767;BME280;46248;58.364;25.582;2023-01-29T13:35:30;99744.56;;;0.93;100.00
59767;BME280;46248;58.364;25.582;2023-01-29T13:38:57;99732.59;;;0.90;100.00
59767;BME280;46248;58.364;25.582;2023-01-29T13:42:25;99724.84;;;0.90;100.00
59767;BME280;46248;58.364;25.582;2023-01-29T13:45:54;99729.16;;;0.91;100.00
59767;BME280;46248;58.364;25.582;2023-01-29T13:49:24;99720.59;;;0.89;100.00
59767;BME280;46248;58.364;25.582;2023-01-29T13:52:53;99718.00;;;0.91;100.00
59767;BME280;46248;58.364;25.582;2023-01-29T14:04:29;99714.63;;;0.87;100.00
59767;BME280;46248;58.364;25.582;2023-01-29T14:07:51;99728.41;;;0.86;100.00
59767;BME280;46248;58.364;25.582;2023-01-29T14:11:33;99704.38;;;0.84;100.00
59767;BME280;46248;58.364;25.582;2023-01-29T14:15:03;99711.25;;;0.85;100.00
59767;BME280;46248;58.364;25.582;2023-01-29T14:18:27;99708.78;;;0.81;100.00
59767;BME280;46248;58.364;25.582;2023-01-29T14:21:58;99707.84;;;0.83;100.00
59767;BME280;46248;58.364;25.582;2023-01-29T14:25:27;99710.44;;;0.83;100.00
59767;BME280;46248;58.364;25.582;2023-01-29T14:28:58;99697.69;;;0.79;100.00
59767;BME280;46248;58.364;25.582;2023-01-29T14:32:22;99706.28;;;0.78;100.00
59767;BME280;46248;58.364;25.582;2023-01-29T14:35:49;99690.88;;;0.75;100.00
59767;BME280;46248;58.364;25.582;2023-01-29T14:39:27;99678.00;;;0.75;100.00
59767;BME280;46248;58.364;25.582;2023-01-29T14:42:57;99668.59;;;0.74;100.00
59767;BME280;46248;58.364;25.582;2023-01-29T14:46:42;99678.91;;;0.74;100.00
59767;BME280;46248;58.364;25.582;2023-01-29T14:50:40;99668.66;;;0.71;100.00
59767;BME280;46248;58.364;25.582;2023-01-29T14:54:05;99648.06;;;0.69;100.00
59767;BME280;46248;58.364;25.582;2023-01-29T14:57:35;99649.78;;;0.70;100.00
59767;BME280;46248;58.364;25.582;2023-01-29T15:00:59;99642.91;;;0.71;100.00
59767;BME280;46248;58.364;25.582;2023-01-29T15:04:25;99623.31;;;0.63;100.00
59767;BME280;46248;58.364;25.582;2023-01-29T15:07:54;99611.22;;;0.67;100.00
59767;BME280;46248;58.364;25.582;2023-01-29T15:11:26;99606.06;;;0.67;100.00
59767;BME280;46248;58.364;25.582;2023-01-29T15:15:03;99603.56;;;0.64;100.00
59767;BME280;46248;58.364;25.582;2023-01-29T15:18:31;99595.88;;;0.62;100.00
59767;BME280;46248;58.364;25.582;2023-01-29T15:22:09;99589.94;;;0.59;100.00
59767;BME280;46248;58.364;25.582;2023-01-29T15:25:35;99582.31;;;0.54;100.00
59767;BME280;46248;58.364;25.582;2023-01-29T15:29:21;99574.59;;;0.54;100.00
59767;BME280;46248;58.364;25.582;2023-01-29T15:32:45;99575.50;;;0.53;100.00
59767;BME280;46248;58.364;25.582;2023-01-29T15:36:15;99560.03;;;0.53;100.00
59767;BME280;46248;58.364;25.582;2023-01-29T15:39:41;99552.31;;;0.53;100.00
59767;BME280;46248;58.364;25.582;2023-01-29T15:43:18;99549.72;;;0.55;100.00
59767;BME280;46248;58.364;25.582;2023-01-29T15:46:43;99542.94;;;0.51;100.00
59767;BME280;46248;58.364;25.582;2023-01-29T15:50:10;99524.22;;;0.44;100.00
59767;BME280;46248;58.364;25.582;2023-01-29T15:53:35;99532.69;;;0.49;100.00
59767;BME280;46248;58.364;25.582;2023-01-29T15:56:59;99517.25;;;0.48;100.00
59767;BME280;46248;58.364;25.582;2023-01-29T16:00:25;99512.16;;;0.46;100.00
59767;BME280;46248;58.364;25.582;2023-01-29T16:03:49;99498.47;;;0.44;100.00
59767;BME280;46248;58.364;25.582;2023-01-29T16:07:12;99495.88;;;0.44;100.00
59767;BME280;46248;58.364;25.582;2023-01-29T16:10:34;99475.44;;;0.39;100.00
59767;BME280;46248;58.364;25.582;2023-01-29T16:13:56;99474.44;;;0.43;100.00
59767;BME280;46248;58.364;25.582;2023-01-29T16:17:25;99474.38;;;0.45;100.00
59767;BME280;46248;58.364;25.582;2023-01-29T16:20:50;99460.81;;;0.40;100.00
59767;BME280;46248;58.364;25.582;2023-01-29T16:24:14;99460.66;;;0.44;100.00
59767;BME280;46248;58.364;25.582;2023-01-29T16:27:43;99456.44;;;0.42;100.00
59767;BME280;46248;58.364;25.582;2023-01-29T16:31:05;99459.88;;;0.42;100.00
59767;BME280;46248;58.364;25.582;2023-01-29T16:34:31;99454.75;;;0.41;100.00
59767;BME280;46248;58.364;25.582;2023-01-29T16:37:58;99448.78;;;0.40;100.00
59767;BME280;46248;58.364;25.582;2023-01-29T16:41:30;99436.75;;;0.41;100.00
59767;BME280;46248;58.364;25.582;2023-01-29T16:44:55;99416.22;;;0.38;100.00
59767;BME280;46248;58.364;25.582;2023-01-29T16:48:25;99429.06;;;0.39;100.00
59767;BME280;46248;58.364;25.582;2023-01-29T16:51:49;99429.91;;;0.40;100.00
59767;BME280;46248;58.364;25.582;2023-01-29T16:55:19;99425.59;;;0.40;100.00
59767;BME280;46248;58.364;25.582;2023-01-29T16:58:48;99423.03;;;0.40;100.00
59767;BME280;46248;58.364;25.582;2023-01-29T17:02:15;99411.81;;;0.41;100.00
59767;BME280;46248;58.364;25.582;2023-01-29T17:05:42;99399.84;;;0.40;100.00
59767;BME280;46248;58.364;25.582;2023-01-29T17:09:06;99393.84;;;0.40;100.00
59767;BME280;46248;58.364;25.582;2023-01-29T17:12:30;99384.41;;;0.40;100.00
59767;BME280;46248;58.364;25.582;2023-01-29T17:15:58;99366.38;;;0.40;100.00
59767;BME280;46248;58.364;25.582;2023-01-29T17:19:21;99366.31;;;0.42;100.00
59767;BME280;46248;58.364;25.582;2023-01-29T17:22:45;99356.88;;;0.42;100.00
59767;BME280;46248;58.364;25.582;2023-01-29T17:26:11;99344.78;;;0.44;100.00
59767;BME280;46248;58.364;25.582;2023-01-29T17:29:33;99349.06;;;0.45;100.00
59767;BME280;46248;58.364;25.582;2023-01-29T17:32:55;99343.03;;;0.45;100.00
59767;BME280;46248;58.364;25.582;2023-01-29T17:36:17;99331.81;;;0.48;100.00
59767;BME280;46248;58.364;25.582;2023-01-29T17:39:39;99318.06;;;0.49;100.00
59767;BME280;46248;58.364;25.582;2023-01-29T17:43:03;99328.28;;;0.52;100.00
59767;BME280;46248;58.364;25.582;2023-01-29T17:46:26;99327.41;;;0.51;100.00
59767;BME280;46248;58.364;25.582;2023-01-29T17:49:48;99315.41;;;0.52;100.00
59767;BME280;46248;58.364;25.582;2023-01-29T17:53:10;99299.91;;;0.53;100.00
59767;BME280;46248;58.364;25.582;2023-01-29T17:56:32;99304.13;;;0.56;100.00
59767;BME280;46248;58.364;25.582;2023-01-29T17:59:56;99278.38;;;0.54;100.00